Akron, Ohio
Current Conditions -  °F | °C
As of 11:54 AM on Thursday 23 Oct 2014 (Local Time) from KAKR Reporting Station
Scattered Clouds Scattered Clouds  
Wind Chill: 14°   Ceiling: Unl
Heat Index: 14°   Visibility: 10mi
Dew Point:   Wind: 7mph
Humidity: 67%   Direction: 330°NNW
Pressure: 30.18"   Gusts: NA
Location:  41.08°N, 81.51°W
Report Text: KAKR 231554Z AUTO 33006KT 10SM SCT022 14/08 A3018 RMK AO2 SLP221 T01390078
Loading
Personal Weather Stations






























Interactive Weather Map
Tropical Storm Tracking
New forecast layout! Learn more

10-Day Weather Forecast

Advertisements
Track Severe Weather on mobile